Nearby METAR Reports
METARS update every hour


KHZD - Huntingdon, Tennessee, USA
Distance from station: WNW 13mi, 21km
Updated: Sat, 21 Oct 2017 21:55 CDT
Overcast
Overcast
 Wind from SE
Wind: SE 7 mph , 11 km/h
Temperature: 68°F , 20°C
Dew Point: 61°F , 16°C
Humidity: 78%
Barometer: 30.11 inHg , 1019.6 hPa
Clouds: Overcast
Visibility: 10 miles , 16 km
Cloud Details: Overcast 4600 ft
2017/10/22 02:55 KHZD 220255Z AUTO 14006KT 10SM OVC046 20/16 A3011 RMK A01
KPHT - Paris Henry Cty, Tennessee, USA
Distance from station: NNW 22mi, 35km
Updated: Sat, 21 Oct 2017 14:50 CDT
NOT Current
Clear
Clear
 Wind from S
Wind: S 10 mph , 17 km/h, Gust: 17 mph , 28 km/h
Temperature: 77°F , 25°C
Dew Point: 59°F , 15°C
Humidity: 54%
Barometer: 30.11 inHg , 1019.6 hPa
Clouds: Clear
Visibility: 10 miles , 16 km
2017/10/21 19:50 KPHT 211950Z AUTO 19009G15KT 10SM CLR 25/15 A3011 RMK A01
 
KPVE - Lexington-Parson, Tennessee, USA
Distance from station: S 27mi, 43km
Updated: Sat, 21 Oct 2017 21:55 CDT
Clear
Clear
 Wind from SE
Wind: SE 5 mph , 7 km/h
Temperature: 66°F , 19°C
Dew Point: 61°F , 16°C
Humidity: 83%
Barometer: 30.12 inHg , 1020 hPa
Clouds: Clear
Visibility: 10 miles , 16 km
2017/10/22 02:55 KPVE 220255Z AUTO 13004KT 10SM CLR 19/16 A3012 RMK A01
KCEY - Murray Kyle-Oak, Kentucky, USA
Distance from station: N 44mi, 71km
Updated: Sat, 21 Oct 2017 21:15 CDT

 Wind from ESE
Wind: ESE 3 mph , 6 km/h
Temperature: 66°F , 19°C
Dew Point: 63°F , 17°C
Humidity: 88%
Barometer: 30.12 inHg , 1020 hPa
Visibility: 10 miles , 16 km
2017/10/22 02:15 KCEY 220215Z AUTO 12003KT 10SM 19/17 A3012 RMK AO1
 
KUCY - Union City, Tennessee, USA
Distance from station: WNW 48mi, 77km
Updated: Sat, 21 Oct 2017 21:55 CDT
Clear
Clear
 Wind from SSE
Wind: SSE 12 mph , 19 km/h
Temperature: 70°F , 21°C
Dew Point: 61°F , 16°C
Humidity: 73%
Barometer: 30.08 inHg , 1018.6 hPa
Clouds: Clear
Visibility: 10 miles , 16 km
2017/10/22 02:55 KUCY 220255Z AUTO 15010KT 10SM CLR 21/16 A3008 RMK A01
KMKL - Jackson, Tennessee, USA
Distance from station: SW 48mi, 78km
Updated: Sat, 21 Oct 2017 21:53 CDT
Clear
Clear
 Wind from varies
Wind: varies 7 mph , 11 km/h
Temperature: 72°F , 22°C
Dew Point: 63°F , 17°C
Humidity: 73%
Barometer: 30.10 inHg , 1019.3 hPa
Clouds: Clear
Visibility: 10 miles , 16 km
2017/10/22 02:53 KMKL 220253Z AUTO VRB06KT 10SM CLR 22/17 A3010 RMK AO2 SLP189 T02170167 58003
 
KM25 - Mayfield, Kentucky, USA
Distance from station: NNW 54mi, 87km
Updated: Sat, 21 Oct 2017 21:55 CDT
Clear
Clear
 Wind from SE
Wind: SE 8 mph , 13 km/h
Temperature: 68°F , 20°C
Dew Point: 61°F , 16°C
Humidity: 78%
Barometer: 30.11 inHg , 1019.6 hPa
Clouds: Clear
Visibility: 10 miles , 16 km
2017/10/22 02:55 KM25 220255Z AUTO 14007KT 10SM CLR 20/16 A3011 RMK AO2
KSZY - Selmer, Tennessee, USA
Distance from station: SSW 59mi, 96km
Updated: Sat, 21 Oct 2017 21:55 CDT
Clear
Clear
 Wind from SSE
Wind: SSE 9 mph , 15 km/h
Temperature: 70°F , 21°C
Dew Point: 61°F , 16°C
Humidity: 73%
Barometer: 30.12 inHg , 1020 hPa
Clouds: Clear
Visibility: 10 miles , 16 km
2017/10/22 02:55 KSZY 220255Z AUTO 15008KT 10SM CLR 21/16 A3012 RMK A01
 
KHOP - Hopkinsville, Kentucky, USA
Distance from station: NE 60mi, 97km
Updated: Sat, 21 Oct 2017 20:58 CDT
Clear
Clear
 Wind from varies
Wind: varies 2 mph , 4 km/h
Temperature: 70°F , 21°C
Dew Point: 57°F , 14°C
Humidity: 64%
Barometer: 30.15 inHg , 1021 hPa
Clouds: Clear
Visibility: 10 miles , 16 km
2017/10/22 01:58 KHOP 220158Z VRB02KT 10SM CLR 21/14 A3015 RMK AO2A SLP208
KSNH - Savannah Hardin, Tennessee, USA
Distance from station: S 60mi, 97km
Updated: Sat, 21 Oct 2017 21:55 CDT
Clear
Clear
 Wind from SSE
Wind: SSE 8 mph , 13 km/h
Temperature: 70°F , 21°C
Dew Point: 61°F , 16°C
Humidity: 73%
Barometer: 30.13 inHg , 1020.3 hPa
Clouds: Clear
Visibility: 10 miles , 16 km
2017/10/22 02:55 KSNH 220255Z AUTO 16007KT 10SM CLR 21/16 A3013 RMK A01
 
KCKV - Clarksville, Tennessee, USA
Distance from station: NE 61mi, 98km
Updated: Sat, 21 Oct 2017 21:52 CDT
Clear
Clear
 Wind from E
Wind: E 3 mph , 6 km/h
Temperature: 64°F , 18°C
Dew Point: 57°F , 14°C
Humidity: 78%
Barometer: 30.15 inHg , 1021 hPa
Clouds: Clear
Visibility: 10 miles , 16 km
2017/10/22 02:52 KCKV 220252Z AUTO 10003KT 10SM CLR 18/14 A3015 RMK AO2 SLP207 T01780144 50003
KDYR - Dyersburg, Tennessee, USA
Distance from station: W 65mi, 104km
Updated: Sat, 21 Oct 2017 21:56 CDT

 Wind from SE
Wind: SE 9 mph , 15 km/h
Temperature: 70°F , 21°C
Dew Point: 63°F , 17°C
Humidity: 78%
Barometer: 30.07 inHg , 1018.3 hPa
Visibility: 10 miles , 16 km
2017/10/22 02:56 KDYR 220256Z AUTO 14008KT 10SM 21/17 A3007 RMK AO2 SLP195 6//// T02110172 58002 $
 
KMRC - Columbia, Tennessee, USA
Distance from station: ESE 68mi, 110km
Updated: Sat, 21 Oct 2017 21:55 CDT
Partly cloudy
Partly cloudy
 Wind from SE
Wind: SE 7 mph , 11 km/h, Gust: 14 mph , 22 km/h
Temperature: 68°F , 20°C
Dew Point: 57°F , 14°C
Humidity: 69%
Barometer: 30.16 inHg , 1021.3 hPa
Clouds: Partly cloudy
Visibility: 10 miles , 16 km
Cloud Details: Partly cloudy 3300 ft
2017/10/22 02:55 KMRC 220255Z AUTO 13006G12KT 10SM SCT033 20/14 A3016 RMK A01
KM08 - Bolivar/Whitehst, Tennessee, USA
Distance from station: SW 72mi, 117km
Updated: Sat, 21 Oct 2017 21:55 CDT
Clear
Clear
 Wind from SE
Wind: SE 8 mph , 13 km/h
Temperature: 68°F , 20°C
Dew Point: 63°F , 17°C
Humidity: 83%
Barometer: 30.10 inHg , 1019.3 hPa
Clouds: Clear
Visibility: 10 miles , 16 km
2017/10/22 02:55 KM08 220255Z AUTO 14007KT 10SM CLR 20/17 A3010 RMK A01
 
KJWN - Nashv/JC Tune, Tennessee, USA
Distance from station: E 77mi, 123km
Updated: Sat, 21 Oct 2017 21:55 CDT
Partly cloudy
Partly cloudy
 Wind from SE
Wind: SE 5 mph , 7 km/h
Temperature: 70°F , 21°C
Dew Point: 54°F , 12°C
Humidity: 57%
Barometer: 30.17 inHg , 1021.7 hPa
Clouds: Partly cloudy
Visibility: 10 miles , 16 km
Cloud Details: Partly cloudy 4000 ft
2017/10/22 02:55 KJWN 220255Z AUTO 13004KT 10SM SCT040 21/12 A3017 RMK A01
KPAH - Paducah, Kentucky, USA
Distance from station: NNW 77mi, 124km
Updated: Sat, 21 Oct 2017 21:53 CDT
Clear
Clear
 Wind from SSE
Wind: SSE 10 mph , 17 km/h
Temperature: 70°F , 21°C
Dew Point: 59°F , 15°C
Humidity: 69%
Barometer: 30.08 inHg , 1018.6 hPa
Clouds: Clear
Visibility: 10 miles , 16 km
2017/10/22 02:53 KPAH 220253Z 15009KT 10SM CLR 21/15 A3008 RMK AO2 SLP182 T02110150 50002
 
KCRX - Corinth/R Turner, Mississippi, USA
Distance from station: SSW 80mi, 128km
Updated: Sat, 21 Oct 2017 21:55 CDT
Clear
Clear
 Wind from SE
Wind: SE 6 mph , 9 km/h
Temperature: 66°F , 19°C
Dew Point: 61°F , 16°C
Humidity: 83%
Barometer: 30.12 inHg , 1020 hPa
Clouds: Clear
Visibility: 10 miles , 16 km
2017/10/22 02:55 KCRX 220255Z AUTO 14005KT 10SM CLR 19/16 A3012 RMK AO2
KM04 - Covington Muni, Tennessee, USA
Distance from station: WSW 81mi, 131km
Updated: Sat, 21 Oct 2017 21:55 CDT
Few Clouds
Few Clouds
 Wind from SE
Wind: SE 10 mph , 17 km/h
Temperature: 70°F , 21°C
Dew Point: 63°F , 17°C
Humidity: 78%
Barometer: 30.07 inHg , 1018.3 hPa
Clouds: Few Clouds
Visibility: 10 miles , 16 km
Cloud Details: Few Clouds 3700 ft
2017/10/22 02:55 KM04 220255Z AUTO 14009KT 10SM FEW037 21/17 A3007 RMK A01
 
KM91 - Springfield, Tennessee, USA
Distance from station: ENE 82mi, 131km
Updated: Sat, 21 Oct 2017 21:55 CDT
Overcast
Overcast
 Wind from SE
Wind: SE 5 mph , 7 km/h
Temperature: 66°F , 19°C
Dew Point: 55°F , 13°C
Humidity: 68%
Barometer: 30.16 inHg , 1021.3 hPa
Clouds: Overcast
Visibility: 10 miles , 16 km
Cloud Details: Overcast 3200 ft
2017/10/22 02:55 KM91 220255Z AUTO 14004KT 10SM OVC032 19/13 A3016 RMK A01
KM30 - Metropolis, Illinois, USA
Distance from station: NNW 84mi, 135km
Updated: Sat, 21 Oct 2017 21:55 CDT
Clear
Clear
 Wind from SE
Wind: SE 5 mph , 7 km/h
Temperature: 70°F , 21°C
Dew Point: 61°F , 16°C
Humidity: 73%
Barometer: 30.09 inHg , 1019 hPa
Clouds: Clear
Visibility: 10 miles , 16 km
2017/10/22 02:55 KM30 220255Z AUTO 14004KT 10SM CLR 21/16 A3009 RMK AO2 T02140162
 
KNQA - Millington/88d, Tennessee, USA
Distance from station: WSW 103mi, 165km
Updated: Sat, 21 Oct 2017 21:55 CDT
Clear
Clear
 Wind from SE
Wind: SE 8 mph , 13 km/h
Temperature: 72°F , 22°C
Dew Point: 63°F , 17°C
Humidity: 73%
Barometer: 30.06 inHg , 1017.9 hPa
Clouds: Clear
Visibility: 10 miles , 16 km
2017/10/22 02:55 KNQA 220255Z AUTO 14007KT 110V170 10SM CLR 22/17 A3006 RMK A01
K9A4 - Courtland, Alabama, USA
Distance from station: SSE 107mi, 172km
Updated: Thu, 22 Aug 2013 14:15 CDT
NOT Current
Clear
Clear
 Wind from NNE
Wind: NNE 6 mph , 9 km/h
Temperature: 84°F , 29°C
Heat Index: 89°F , 32°C
Dew Point: 72°F , 22°C
Humidity: 66%
Barometer: 30.10 inHg , 1019.3 hPa
Clouds: Clear
Visibility: 10 miles , 16 km
2013/08/22 19:15 K9A4 221915Z AUTO 03005KT 10SM CLR 29/22 A3010 RMK AO2
 
KCGI - Cape Girardeau, Missouri, USA
Distance from station: NW 111mi, 179km
Updated: Sat, 21 Oct 2017 21:53 CDT
Clear
Clear
 Wind from SSE
Wind: SSE 10 mph , 17 km/h
Temperature: 70°F , 21°C
Dew Point: 61°F , 16°C
Humidity: 73%
Barometer: 30.04 inHg , 1017.3 hPa
Clouds: Clear
Visibility: 10 miles , 16 km
2017/10/22 02:53 KCGI 220253Z AUTO 15009KT 10SM CLR 21/16 A3004 RMK AO2 SLP171 T02110156 50001